sensor_id;sensor_type;location;lat;lon;timestamp;P1;durP1;ratioP1;P2;durP2;ratioP2
4206;SDS011;2117;47.972;7.830;2023-11-21T14:23:51;16.17;;;5.33;;
4206;SDS011;2117;47.972;7.830;2023-11-21T14:26:16;6.30;;;5.10;;
4206;SDS011;2117;47.972;7.830;2023-11-21T14:28:43;8.43;;;5.10;;
4206;SDS011;2117;47.972;7.830;2023-11-21T14:31:08;7.00;;;5.77;;
4206;SDS011;2117;47.972;7.830;2023-11-21T14:33:40;7.33;;;6.13;;
4206;SDS011;2117;47.972;7.830;2023-11-21T14:36:06;8.43;;;6.30;;
4206;SDS011;2117;47.972;7.830;2023-11-21T14:38:38;9.73;;;6.25;;
4206;SDS011;2117;47.972;7.830;2023-11-21T14:41:04;8.80;;;4.70;;
4206;SDS011;2117;47.972;7.830;2023-11-21T14:43:33;16.63;;;7.10;;
4206;SDS011;2117;47.972;7.830;2023-11-21T14:46:02;9.47;;;6.00;;
4206;SDS011;2117;47.972;7.830;2023-11-21T14:48:35;16.97;;;7.57;;
4206;SDS011;2117;47.972;7.830;2023-11-21T14:51:08;13.57;;;6.60;;
4206;SDS011;2117;47.972;7.830;2023-11-21T14:53:53;8.60;;;6.20;;
4206;SDS011;2117;47.972;7.830;2023-11-21T14:56:22;6.80;;;5.80;;
4206;SDS011;2117;47.972;7.830;2023-11-21T14:58:55;6.23;;;5.10;;
4206;SDS011;2117;47.972;7.830;2023-11-21T15:01:21;5.90;;;5.30;;
4206;SDS011;2117;47.972;7.830;2023-11-21T15:04:07;7.07;;;5.27;;
4206;SDS011;2117;47.972;7.830;2023-11-21T15:06:34;6.53;;;5.90;;
4206;SDS011;2117;47.972;7.830;2023-11-21T15:09:00;6.50;;;5.43;;
4206;SDS011;2117;47.972;7.830;2023-11-21T15:11:32;7.07;;;6.37;;
4206;SDS011;2117;47.972;7.830;2023-11-21T15:13:58;8.30;;;7.10;;
4206;SDS011;2117;47.972;7.830;2023-11-21T15:16:23;6.90;;;6.10;;
4206;SDS011;2117;47.972;7.830;2023-11-21T15:18:51;7.03;;;6.03;;
4206;SDS011;2117;47.972;7.830;2023-11-21T15:21:22;6.60;;;4.40;;
4206;SDS011;2117;47.972;7.830;2023-11-21T15:23:49;5.93;;;5.33;;
4206;SDS011;2117;47.972;7.830;2023-11-21T15:26:15;8.00;;;6.67;;
4206;SDS011;2117;47.972;7.830;2023-11-21T15:28:41;7.63;;;6.00;;
4206;SDS011;2117;47.972;7.830;2023-11-21T15:31:07;7.30;;;5.20;;
4206;SDS011;2117;47.972;7.830;2023-11-21T15:33:33;5.87;;;5.30;;
4206;SDS011;2117;47.972;7.830;2023-11-21T15:36:00;6.47;;;5.07;;
4206;SDS011;2117;47.972;7.830;2023-11-21T15:38:27;6.67;;;4.90;;
4206;SDS011;2117;47.972;7.830;2023-11-21T15:40:53;7.63;;;5.83;;
4206;SDS011;2117;47.972;7.830;2023-11-21T15:43:19;8.23;;;6.00;;
4206;SDS011;2117;47.972;7.830;2023-11-21T15:45:45;9.03;;;5.83;;
4206;SDS011;2117;47.972;7.830;2023-11-21T15:48:10;8.83;;;5.70;;
4206;SDS011;2117;47.972;7.830;2023-11-21T15:50:36;8.73;;;5.10;;
4206;SDS011;2117;47.972;7.830;2023-11-21T15:53:02;7.57;;;5.50;;
4206;SDS011;2117;47.972;7.830;2023-11-21T15:55:31;6.43;;;4.87;;
4206;SDS011;2117;47.972;7.830;2023-11-21T15:57:56;6.07;;;4.87;;
4206;SDS011;2117;47.972;7.830;2023-11-21T16:00:23;7.77;;;5.93;;
4206;SDS011;2117;47.972;7.830;2023-11-21T16:02:49;7.00;;;5.40;;
4206;SDS011;2117;47.972;7.830;2023-11-21T16:05:15;7.03;;;5.67;;
4206;SDS011;2117;47.972;7.830;2023-11-21T16:07:42;6.83;;;5.83;;
4206;SDS011;2117;47.972;7.830;2023-11-21T16:10:08;6.57;;;5.60;;
4206;SDS011;2117;47.972;7.830;2023-11-21T16:12:41;10.23;;;5.93;;
4206;SDS011;2117;47.972;7.830;2023-11-21T16:15:07;6.13;;;5.47;;
4206;SDS011;2117;47.972;7.830;2023-11-21T16:17:34;7.00;;;5.70;;
4206;SDS011;2117;47.972;7.830;2023-11-21T16:20:01;7.07;;;5.87;;
4206;SDS011;2117;47.972;7.830;2023-11-21T16:22:36;5.83;;;5.03;;
4206;SDS011;2117;47.972;7.830;2023-11-21T16:25:02;5.27;;;4.63;;
4206;SDS011;2117;47.972;7.830;2023-11-21T16:27:35;6.40;;;5.40;;
4206;SDS011;2117;47.972;7.830;2023-11-21T16:30:05;5.50;;;4.90;;
4206;SDS011;2117;47.972;7.830;2023-11-21T16:32:33;6.67;;;5.20;;
4206;SDS011;2117;47.972;7.830;2023-11-21T16:35:01;9.10;;;4.60;;
4206;SDS011;2117;47.972;7.830;2023-11-21T16:37:28;5.33;;;4.37;;
4206;SDS011;2117;47.972;7.830;2023-11-21T16:39:54;4.20;;;3.80;;
4206;SDS011;2117;47.972;7.830;2023-11-21T16:42:20;6.03;;;4.33;;
4206;SDS011;2117;47.972;7.830;2023-11-21T16:44:45;5.17;;;4.07;;
4206;SDS011;2117;47.972;7.830;2023-11-21T16:47:11;5.67;;;4.40;;
4206;SDS011;2117;47.972;7.830;2023-11-21T16:49:37;5.77;;;4.57;;
4206;SDS011;2117;47.972;7.830;2023-11-21T16:52:04;6.90;;;5.73;;
4206;SDS011;2117;47.972;7.830;2023-11-21T16:54:32;7.90;;;5.43;;
4206;SDS011;2117;47.972;7.830;2023-11-21T16:56:58;7.40;;;5.43;;
4206;SDS011;2117;47.972;7.830;2023-11-21T16:59:24;6.10;;;5.50;;
4206;SDS011;2117;47.972;7.830;2023-11-21T17:01:49;8.87;;;6.20;;
4206;SDS011;2117;47.972;7.830;2023-11-21T17:04:15;8.13;;;7.27;;
4206;SDS011;2117;47.972;7.830;2023-11-21T17:06:44;8.60;;;7.00;;
4206;SDS011;2117;47.972;7.830;2023-11-21T17:09:10;7.00;;;6.23;;
4206;SDS011;2117;47.972;7.830;2023-11-21T17:11:39;7.70;;;6.90;;
4206;SDS011;2117;47.972;7.830;2023-11-21T17:14:06;9.90;;;7.23;;
4206;SDS011;2117;47.972;7.830;2023-11-21T17:16:33;9.10;;;8.20;;
4206;SDS011;2117;47.972;7.830;2023-11-21T17:19:00;10.33;;;8.30;;
4206;SDS011;2117;47.972;7.830;2023-11-21T17:21:27;9.60;;;8.60;;
4206;SDS011;2117;47.972;7.830;2023-11-21T17:23:53;9.13;;;8.23;;
4206;SDS011;2117;47.972;7.830;2023-11-21T17:26:20;11.30;;;10.10;;
4206;SDS011;2117;47.972;7.830;2023-11-21T17:28:45;13.10;;;10.80;;
4206;SDS011;2117;47.972;7.830;2023-11-21T17:31:11;12.07;;;10.23;;
4206;SDS011;2117;47.972;7.830;2023-11-21T17:33:37;11.80;;;10.60;;
4206;SDS011;2117;47.972;7.830;2023-11-21T17:36:03;12.47;;;10.50;;
4206;SDS011;2117;47.972;7.830;2023-11-21T17:38:29;14.77;;;12.53;;
4206;SDS011;2117;47.972;7.830;2023-11-21T17:40:55;16.93;;;12.53;;
4206;SDS011;2117;47.972;7.830;2023-11-21T17:43:21;13.60;;;11.77;;
4206;SDS011;2117;47.972;7.830;2023-11-21T17:45:46;15.87;;;13.13;;
4206;SDS011;2117;47.972;7.830;2023-11-21T17:48:13;12.73;;;11.43;;
4206;SDS011;2117;47.972;7.830;2023-11-21T17:50:39;15.17;;;12.13;;
4206;SDS011;2117;47.972;7.830;2023-11-21T17:53:05;16.87;;;13.17;;
4206;SDS011;2117;47.972;7.830;2023-11-21T17:55:31;13.97;;;12.53;;
4206;SDS011;2117;47.972;7.830;2023-11-21T17:57:57;16.57;;;12.60;;
4206;SDS011;2117;47.972;7.830;2023-11-21T18:00:23;13.93;;;12.43;;
4206;SDS011;2117;47.972;7.830;2023-11-21T18:02:54;15.90;;;14.30;;
4206;SDS011;2117;47.972;7.830;2023-11-21T18:05:20;15.77;;;13.13;;
4206;SDS011;2117;47.972;7.830;2023-11-21T18:07:51;15.73;;;13.80;;
4206;SDS011;2117;47.972;7.830;2023-11-21T18:10:17;13.80;;;12.50;;
4206;SDS011;2117;47.972;7.830;2023-11-21T18:12:43;16.70;;;14.83;;
4206;SDS011;2117;47.972;7.830;2023-11-21T18:15:08;15.40;;;13.80;;
4206;SDS011;2117;47.972;7.830;2023-11-21T18:17:34;22.40;;;14.60;;
4206;SDS011;2117;47.972;7.830;2023-11-21T18:20:00;17.00;;;15.17;;
4206;SDS011;2117;47.972;7.830;2023-11-21T18:22:26;18.40;;;15.37;;
4206;SDS011;2117;47.972;7.830;2023-11-21T18:24:52;16.00;;;14.30;;
4206;SDS011;2117;47.972;7.830;2023-11-21T18:27:18;19.10;;;15.97;;
4206;SDS011;2117;47.972;7.830;2023-11-21T18:29:46;20.93;;;16.90;;
4206;SDS011;2117;47.972;7.830;2023-11-21T18:32:11;17.47;;;15.53;;
4206;SDS011;2117;47.972;7.830;2023-11-21T18:34:40;17.60;;;15.83;;
4206;SDS011;2117;47.972;7.830;2023-11-21T18:37:08;15.93;;;14.23;;
4206;SDS011;2117;47.972;7.830;2023-11-21T18:39:33;23.10;;;17.20;;
4206;SDS011;2117;47.972;7.830;2023-11-21T18:41:59;18.33;;;16.43;;
4206;SDS011;2117;47.972;7.830;2023-11-21T18:44:25;20.80;;;17.77;;
4206;SDS011;2117;47.972;7.830;2023-11-21T18:46:50;19.27;;;15.70;;
4206;SDS011;2117;47.972;7.830;2023-11-21T18:49:17;19.93;;;17.03;;
4206;SDS011;2117;47.972;7.830;2023-11-21T18:51:45;17.40;;;15.47;;
4206;SDS011;2117;47.972;7.830;2023-11-21T18:54:13;23.23;;;15.90;;
4206;SDS011;2117;47.972;7.830;2023-11-21T18:56:38;17.97;;;15.63;;
4206;SDS011;2117;47.972;7.830;2023-11-21T18:59:05;22.90;;;16.97;;
4206;SDS011;2117;47.972;7.830;2023-11-21T19:01:33;22.50;;;17.77;;
4206;SDS011;2117;47.972;7.830;2023-11-21T19:03:59;19.87;;;16.50;;
4206;SDS011;2117;47.972;7.830;2023-11-21T19:06:25;19.10;;;17.03;;
4206;SDS011;2117;47.972;7.830;2023-11-21T19:08:51;22.40;;;17.40;;
4206;SDS011;2117;47.972;7.830;2023-11-21T19:11:17;19.93;;;17.07;;
4206;SDS011;2117;47.972;7.830;2023-11-21T19:13:43;21.20;;;16.87;;
4206;SDS011;2117;47.972;7.830;2023-11-21T19:16:09;22.90;;;16.30;;
4206;SDS011;2117;47.972;7.830;2023-11-21T19:18:35;22.33;;;16.00;;
4206;SDS011;2117;47.972;7.830;2023-11-21T19:21:01;19.47;;;17.20;;
4206;SDS011;2117;47.972;7.830;2023-11-21T19:23:26;26.23;;;16.40;;
4206;SDS011;2117;47.972;7.830;2023-11-21T19:25:52;23.90;;;18.13;;
4206;SDS011;2117;47.972;7.830;2023-11-21T19:28:17;18.30;;;16.07;;
4206;SDS011;2117;47.972;7.830;2023-11-21T19:30:43;17.40;;;14.30;;
4206;SDS011;2117;47.972;7.830;2023-11-21T19:33:09;23.50;;;17.67;;
4206;SDS011;2117;47.972;7.830;2023-11-21T19:35:35;19.83;;;16.60;;
4206;SDS011;2117;47.972;7.830;2023-11-21T19:38:04;17.63;;;15.17;;
4206;SDS011;2117;47.972;7.830;2023-11-21T19:40:30;15.87;;;12.97;;
4206;SDS011;2117;47.972;7.830;2023-11-21T19:42:58;16.60;;;12.90;;
4206;SDS011;2117;47.972;7.830;2023-11-21T19:45:24;14.80;;;13.40;;
4206;SDS011;2117;47.972;7.830;2023-11-21T19:47:52;15.00;;;12.67;;
4206;SDS011;2117;47.972;7.830;2023-11-21T19:50:18;16.10;;;13.00;;
4206;SDS011;2117;47.972;7.830;2023-11-21T19:52:44;13.77;;;12.37;;
4206;SDS011;2117;47.972;7.830;2023-11-21T19:55:09;10.63;;;9.10;;
4206;SDS011;2117;47.972;7.830;2023-11-21T19:57:37;10.67;;;9.40;;
4206;SDS011;2117;47.972;7.830;2023-11-21T20:00:04;8.70;;;7.60;;
4206;SDS011;2117;47.972;7.830;2023-11-21T20:02:31;8.47;;;7.57;;
4206;SDS011;2117;47.972;7.830;2023-11-21T20:04:59;12.67;;;9.00;;
4206;SDS011;2117;47.972;7.830;2023-11-21T20:07:24;9.60;;;8.07;;
4206;SDS011;2117;47.972;7.830;2023-11-21T20:09:51;9.27;;;8.37;;
4206;SDS011;2117;47.972;7.830;2023-11-21T20:12:18;8.80;;;7.90;;
4206;SDS011;2117;47.972;7.830;2023-11-21T20:14:44;9.30;;;8.40;;
4206;SDS011;2117;47.972;7.830;2023-11-21T20:17:12;8.80;;;8.00;;
4206;SDS011;2117;47.972;7.830;2023-11-21T20:19:39;10.57;;;9.50;;
4206;SDS011;2117;47.972;7.830;2023-11-21T20:22:07;12.87;;;9.60;;
4206;SDS011;2117;47.972;7.830;2023-11-21T20:24:33;10.67;;;9.57;;
4206;SDS011;2117;47.972;7.830;2023-11-21T20:27:02;12.07;;;10.30;;
4206;SDS011;2117;47.972;7.830;2023-11-21T20:29:29;11.73;;;10.53;;
4206;SDS011;2117;47.972;7.830;2023-11-21T20:31:56;12.13;;;10.43;;
4206;SDS011;2117;47.972;7.830;2023-11-21T20:34:22;13.30;;;11.90;;
4206;SDS011;2117;47.972;7.830;2023-11-21T20:36:48;12.90;;;11.40;;
4206;SDS011;2117;47.972;7.830;2023-11-21T20:39:14;14.47;;;12.97;;
4206;SDS011;2117;47.972;7.830;2023-11-21T20:41:41;15.70;;;13.47;;
4206;SDS011;2117;47.972;7.830;2023-11-21T20:44:06;21.03;;;15.33;;
4206;SDS011;2117;47.972;7.830;2023-11-21T20:46:38;18.47;;;16.40;;
4206;SDS011;2117;47.972;7.830;2023-11-21T20:49:05;18.53;;;16.53;;
4206;SDS011;2117;47.972;7.830;2023-11-21T20:51:34;23.33;;;18.67;;
4206;SDS011;2117;47.972;7.830;2023-11-21T20:53:59;20.80;;;17.43;;
4206;SDS011;2117;47.972;7.830;2023-11-21T20:56:25;23.33;;;18.93;;
4206;SDS011;2117;47.972;7.830;2023-11-21T20:58:51;24.93;;;16.53;;
4206;SDS011;2117;47.972;7.830;2023-11-21T21:01:16;25.20;;;19.70;;
4206;SDS011;2117;47.972;7.830;2023-11-21T21:03:42;22.37;;;18.67;;
4206;SDS011;2117;47.972;7.830;2023-11-21T21:06:10;25.33;;;17.87;;
4206;SDS011;2117;47.972;7.830;2023-11-21T21:08:36;23.37;;;19.63;;
4206;SDS011;2117;47.972;7.830;2023-11-21T21:11:02;22.80;;;19.87;;
4206;SDS011;2117;47.972;7.830;2023-11-21T21:13:28;22.77;;;17.33;;
4206;SDS011;2117;47.972;7.830;2023-11-21T21:15:54;28.67;;;20.13;;
4206;SDS011;2117;47.972;7.830;2023-11-21T21:18:20;23.93;;;18.43;;
4206;SDS011;2117;47.972;7.830;2023-11-21T21:20:46;26.27;;;20.20;;
4206;SDS011;2117;47.972;7.830;2023-11-21T21:23:14;28.17;;;20.10;;
4206;SDS011;2117;47.972;7.830;2023-11-21T21:25:40;31.83;;;18.07;;
4206;SDS011;2117;47.972;7.830;2023-11-21T21:28:05;23.70;;;18.23;;
4206;SDS011;2117;47.972;7.830;2023-11-21T21:30:31;22.97;;;18.10;;
4206;SDS011;2117;47.972;7.830;2023-11-21T21:32:56;25.80;;;18.17;;
4206;SDS011;2117;47.972;7.830;2023-11-21T21:35:24;23.80;;;17.83;;
4206;SDS011;2117;47.972;7.830;2023-11-21T21:37:53;29.10;;;20.03;;
4206;SDS011;2117;47.972;7.830;2023-11-21T21:40:21;26.87;;;20.20;;
4206;SDS011;2117;47.972;7.830;2023-11-21T21:42:48;27.00;;;19.63;;
4206;SDS011;2117;47.972;7.830;2023-11-21T21:45:14;24.27;;;19.40;;
4206;SDS011;2117;47.972;7.830;2023-11-21T21:47:39;27.90;;;20.50;;
4206;SDS011;2117;47.972;7.830;2023-11-21T21:50:05;27.20;;;19.70;;
4206;SDS011;2117;47.972;7.830;2023-11-21T21:52:34;32.37;;;22.33;;
4206;SDS011;2117;47.972;7.830;2023-11-21T21:55:01;23.80;;;20.27;;
4206;SDS011;2117;47.972;7.830;2023-11-21T21:57:27;30.53;;;21.10;;
4206;SDS011;2117;47.972;7.830;2023-11-21T21:59:53;31.57;;;19.97;;
4206;SDS011;2117;47.972;7.830;2023-11-21T22:02:19;31.10;;;21.20;;
4206;SDS011;2117;47.972;7.830;2023-11-21T22:04:44;28.20;;;21.80;;
4206;SDS011;2117;47.972;7.830;2023-11-21T22:07:10;24.60;;;20.70;;
4206;SDS011;2117;47.972;7.830;2023-11-21T22:09:35;27.00;;;21.67;;
4206;SDS011;2117;47.972;7.830;2023-11-21T22:12:01;26.77;;;21.73;;
4206;SDS011;2117;47.972;7.830;2023-11-21T22:14:28;25.63;;;21.20;;
4206;SDS011;2117;47.972;7.830;2023-11-21T22:16:53;23.80;;;19.67;;
4206;SDS011;2117;47.972;7.830;2023-11-21T22:19:19;30.10;;;22.27;;
4206;SDS011;2117;47.972;7.830;2023-11-21T22:21:44;32.37;;;22.47;;
4206;SDS011;2117;47.972;7.830;2023-11-21T22:24:10;25.80;;;21.73;;
4206;SDS011;2117;47.972;7.830;2023-11-21T22:26:36;31.80;;;22.17;;
4206;SDS011;2117;47.972;7.830;2023-11-21T22:29:01;30.20;;;22.20;;
4206;SDS011;2117;47.972;7.830;2023-11-21T22:31:27;25.10;;;19.60;;
4206;SDS011;2117;47.972;7.830;2023-11-21T22:33:53;26.93;;;21.30;;
4206;SDS011;2117;47.972;7.830;2023-11-21T22:36:19;25.17;;;21.10;;
4206;SDS011;2117;47.972;7.830;2023-11-21T22:38:45;26.83;;;19.63;;
4206;SDS011;2117;47.972;7.830;2023-11-21T22:41:10;33.73;;;19.97;;
4206;SDS011;2117;47.972;7.830;2023-11-21T22:43:36;26.73;;;20.50;;
4206;SDS011;2117;47.972;7.830;2023-11-21T22:46:02;28.00;;;20.63;;
4206;SDS011;2117;47.972;7.830;2023-11-21T22:48:28;28.53;;;20.17;;
4206;SDS011;2117;47.972;7.830;2023-11-21T22:50:54;29.00;;;20.00;;
4206;SDS011;2117;47.972;7.830;2023-11-21T22:53:19;29.77;;;21.00;;
4206;SDS011;2117;47.972;7.830;2023-11-21T22:55:45;26.30;;;20.03;;
4206;SDS011;2117;47.972;7.830;2023-11-21T22:58:11;29.40;;;20.87;;
4206;SDS011;2117;47.972;7.830;2023-11-21T23:00:36;22.97;;;19.40;;
4206;SDS011;2117;47.972;7.830;2023-11-21T23:03:02;35.67;;;18.83;;
4206;SDS011;2117;47.972;7.830;2023-11-21T23:05:30;24.80;;;19.03;;
4206;SDS011;2117;47.972;7.830;2023-11-21T23:07:55;28.30;;;21.27;;
4206;SDS011;2117;47.972;7.830;2023-11-21T23:10:21;27.97;;;20.13;;
4206;SDS011;2117;47.972;7.830;2023-11-21T23:12:48;29.57;;;19.53;;
4206;SDS011;2117;47.972;7.830;2023-11-21T23:15:14;30.20;;;20.10;;
4206;SDS011;2117;47.972;7.830;2023-11-21T23:17:40;30.20;;;20.77;;
4206;SDS011;2117;47.972;7.830;2023-11-21T23:20:06;24.20;;;17.60;;
4206;SDS011;2117;47.972;7.830;2023-11-21T23:22:36;27.80;;;20.47;;
4206;SDS011;2117;47.972;7.830;2023-11-21T23:25:04;32.70;;;21.57;;
4206;SDS011;2117;47.972;7.830;2023-11-21T23:27:31;28.93;;;20.70;;
4206;SDS011;2117;47.972;7.830;2023-11-21T23:29:56;24.23;;;18.90;;
4206;SDS011;2117;47.972;7.830;2023-11-21T23:32:22;29.10;;;20.80;;
4206;SDS011;2117;47.972;7.830;2023-11-21T23:34:48;26.83;;;20.63;;
4206;SDS011;2117;47.972;7.830;2023-11-21T23:37:14;30.97;;;22.00;;
4206;SDS011;2117;47.972;7.830;2023-11-21T23:39:40;31.13;;;21.43;;
4206;SDS011;2117;47.972;7.830;2023-11-21T23:42:05;28.57;;;19.30;;
4206;SDS011;2117;47.972;7.830;2023-11-21T23:44:31;24.83;;;19.77;;
4206;SDS011;2117;47.972;7.830;2023-11-21T23:46:56;26.80;;;19.83;;
4206;SDS011;2117;47.972;7.830;2023-11-21T23:49:24;26.97;;;20.33;;
4206;SDS011;2117;47.972;7.830;2023-11-21T23:51:51;29.23;;;20.83;;
4206;SDS011;2117;47.972;7.830;2023-11-21T23:54:16;28.60;;;19.67;;
4206;SDS011;2117;47.972;7.830;2023-11-21T23:56:43;33.40;;;21.60;;
4206;SDS011;2117;47.972;7.830;2023-11-21T23:59:09;31.77;;;21.03;;
